• Join FlightAware (Why Join?)
  • Login
  • US Flag GB Flag 
03:43 EST


 

Airport Tracker/Info


-or-


 

Live Flight TrackerFlight Track Log ✈ N960DL ✈ 23-Apr-2013 ✈ KMSY - KATL

Flight Track Log - Related Links

Times and Time Zones

All times are in EDT time to prevent confusion due to time zone crossing. See the N960DL flight status page for this flight to view local times or setup timezone preferences in your user account.

Time Position Orientation Groundspeed Altitude Reporting Facility
EDT Latitude Longitude Course Direction KTS MPH feet Rate Location/Type
12:22 29.9822 -90.2536 47° Northeast 154 177 500  Level Houston Center
12:23 29.9328 -90.2569 183° South 258 297 2,600 1,937 Climbing Houston Center
12:24 29.9339 -90.1836 89° East 245 282 4,600 2,661 Climbing Houston Center
12:25 30.2092 -89.9344 47° Northeast  Level FlightAware Approximate
12:25 29.9889 -90.1206 45° Northeast 268 308 8,100  Level Houston Center
12:26 30.2864 -89.8289 52° Northeast  Level FlightAware Approximate
12:27 30.3601 -89.7199 49° Northeast  Level FlightAware Approximate
12:27 30.0478 -90.0583 42° Northeast 284 327 10,800  Level Houston Center
12:28 30.4399 -89.6168 47° Northeast  Level FlightAware Approximate
12:28 30.1475 -89.9844 33° Northeast 348 400 12,500  Level Houston Center
12:29 30.2400 -89.9119 34° Northeast 396 456 14,900 2,352 Climbing Houston Center
12:30 30.3333 -89.8347 36° Northeast 417 480 17,400 2,226 Climbing Houston Center
12:31 30.4444 -89.7436 35° Northeast 439 505 19,500 2,032 Climbing Houston Center
12:32 30.5428 -89.6469 40° Northeast 467 537 21,600 1,935 Climbing Houston Center
12:33 30.6111 -89.5153 59° Northeast 474 545 23,500 1,645 Climbing Houston Center
12:34 30.6753 -89.3819 61° Northeast 474 545 25,000 677 Climbing Houston Center
12:35 30.7381 -89.2500 61° Northeast 469 540 24,900  Descending Houston Center
12:36 30.7975 -89.1219 62° Northeast 452 520 25,000 48 Climbing Houston Center
12:37 30.8694 -88.9692 61° Northeast 449 517 25,000  Level Houston Center
12:38 30.9233 -88.8569 61° Northeast 450 518 25,000  Level Houston Center
12:39 30.9836 -88.7297 61° Northeast 448 516 25,000  Level Houston Center
12:40 31.0517 -88.5867 61° Northeast 451 519 25,000  Level Houston Center
12:41 31.1139 -88.4592 60° Northeast 453 521 25,000  Level Houston Center
12:42 31.1867 -88.3403 54° Northeast 453 521 25,000  Level Houston Center
12:43 31.2733 -88.2125 52° Northeast 455 524 25,000  Level Atlanta Center
12:44 31.3450 -88.0886 56° Northeast 448 516 25,000  Level Houston Center
12:45 31.4081 -87.9875 54° Northeast 457 526 25,000  Level Atlanta Center
12:46 31.4806 -87.8689 54° Northeast 457 526 25,000  Level Atlanta Center
12:47 31.5531 -87.7525 54° Northeast 451 519 25,000  Level Atlanta Center
12:48 31.6256 -87.6311 55° Northeast 451 519 25,000  Level Atlanta Center
12:49 31.6978 -87.5144 54° Northeast 446 513 25,000  Level Atlanta Center
12:50 31.7678 -87.3975 55° Northeast 441 507 25,000  Level Atlanta Center
12:51 31.8467 -87.2561 57° Northeast 449 517 25,000  Level Atlanta Center
12:52 31.9250 -87.1269 54° Northeast 467 537 25,000  Level Atlanta Center
12:53 32.0014 -86.9997 55° Northeast 472 543 25,000  Level Atlanta Center
12:54 32.0814 -86.8700 54° Northeast 477 549 25,000  Level Atlanta Center
12:55 32.1575 -86.7400 55° Northeast 482 555 25,000  Level Atlanta Center
12:56 32.2350 -86.6319 50° Northeast 482 555 25,000 -200 Level Atlanta Center
12:57 32.3108 -86.4989 56° Northeast 482 555 24,600 -500 Descending Atlanta Center
12:58 32.3847 -86.3483 60° Northeast 482 555 24,000 -300 Descending Atlanta Center
12:59 32.4600 -86.2200 55° Northeast 482 555 24,000  Level Atlanta Center
13:00 32.5417 -86.0864 54° Northeast 483 556 24,000  Level Atlanta Center
13:01 32.6081 -85.9719 55° Northeast 483 556 24,000  Level Atlanta Center
13:02 32.6853 -85.8406 55° Northeast 483 556 24,000  Level Atlanta Center
13:03 32.7603 -85.7086 56° Northeast 483 556 24,000 -500 Level Atlanta Center
13:04 32.8350 -85.5789 56° Northeast 483 556 23,000 -1,950 Descending Atlanta Center
13:05 32.9075 -85.4517 56° Northeast 476 548 20,100 -2,650 Descending Atlanta Center
13:06 32.9775 -85.3314 55° Northeast 461 531 17,700 -2,650 Descending Atlanta Center
13:07 33.0414 -85.2158 57° Northeast 435 501 14,800 -2,550 Descending Atlanta Center
13:08 33.1133 -85.1225 47° Northeast 398 458 12,600 -1,400 Descending Atlanta Center
13:09 33.1744 -85.0439 47° Northeast 342 394 12,000 -750 Descending Atlanta Center
13:10 33.2292 -84.9700 48° Northeast 305 351 11,100 -1,200 Descending Atlanta Center
13:11 33.2861 -84.8961 47° Northeast 293 337 9,600 -1,450 Descending Atlanta Center
13:12 33.3408 -84.8244 48° Northeast 293 337 8,200 -1,532 Descending Atlanta Center
13:13 33.3833 -84.7833 39° Northeast 292 336 7,200 -1,680 Descending Atlanta TRACON
13:14 33.4667 -84.7500 18° North 272 313 5,400 -1,524 Descending Atlanta TRACON
13:15 33.5333 -84.7167 23° Northeast 260 299 4,000 -1,200 Descending Atlanta TRACON
13:16 33.5833 -84.6667 40° Northeast 224 258 3,000 -450 Descending Atlanta TRACON
13:17 33.6167 -84.6167 51° Northeast 215 247 3,100 100 Climbing Atlanta TRACON